Startpagina
METAR-TAF:

METAR-TAF

Vliegvelden :

Dakar, Senegal

Luchthaven Dakar

breedte: 14-44N, lengte: 017-30W, hoogte: 27 m

Actueel weer

Dit bericht is 35 minuten geleden gemaakt, om 23:30 UTC
Wind 3 kt uit het oosten
Temperatuur 26°C
Vochtigheid 84%
Druk 1016 hPa
Zicht 10 km of meer
Weinig wolken op 1000 ft

METAR: GOOY 272330Z 09003KT 9999 FEW010 26/23 Q1016 NOSIG

Tijdstip: 00:05 (00:05 UTC)

Verwachting

Dit bericht is 35 minuten geleden gemaakt, om 23:30 UTC
Verwachting geldig van 28 om 00 UTC tot 29 om 06 UTC
Wind 6 kt uit het westen
Zicht 10 km of meer
Verspreide wolken op 1000 ft

TAF: GOOY 272330Z 2800/2906 26006KT 9999 SCT010

Waarnemingen en weersverwachtingen van meer dan 4000 vliegvelden (METAR en TAF).

De beschikbare stations zijn de gele en rode punten op de kaart.

Ga met uw muis naar het station om de naam te zien.

Klik dan om waarnemingen en weersverwachtingen te zien.

kaart wijzigen: klik op de groene knoppen met een zwart kruis om in te zoomen, op de groene knop met een streepje om uit te zoomen of op de groene pijlen voor aangrenzende kaarten.


METAR-TAF: